sensor_id;sensor_type;location;lat;lon;timestamp;temperature;humidity
29687;DHT22;16599;47.078;15.536;2022-11-13T00:01:18;6.50;99.90
29687;DHT22;16599;47.078;15.536;2022-11-13T00:03:45;6.60;99.90
29687;DHT22;16599;47.078;15.536;2022-11-13T00:06:13;6.50;99.90
29687;DHT22;16599;47.078;15.536;2022-11-13T00:08:40;6.50;99.90
29687;DHT22;16599;47.078;15.536;2022-11-13T00:11:15;6.50;99.90
29687;DHT22;16599;47.078;15.536;2022-11-13T00:13:44;6.60;99.90
29687;DHT22;16599;47.078;15.536;2022-11-13T00:16:14;6.50;99.90
29687;DHT22;16599;47.078;15.536;2022-11-13T00:18:41;6.50;99.90
29687;DHT22;16599;47.078;15.536;2022-11-13T00:21:19;6.50;99.90
29687;DHT22;16599;47.078;15.536;2022-11-13T00:23:46;6.50;99.90
29687;DHT22;16599;47.078;15.536;2022-11-13T00:26:17;6.50;99.90
29687;DHT22;16599;47.078;15.536;2022-11-13T00:28:44;6.50;99.90
29687;DHT22;16599;47.078;15.536;2022-11-13T00:31:13;6.50;99.90
29687;DHT22;16599;47.078;15.536;2022-11-13T00:33:40;6.50;99.90
29687;DHT22;16599;47.078;15.536;2022-11-13T00:36:28;6.50;99.90
29687;DHT22;16599;47.078;15.536;2022-11-13T00:38:55;6.50;99.90
29687;DHT22;16599;47.078;15.536;2022-11-13T00:41:22;6.40;99.90
29687;DHT22;16599;47.078;15.536;2022-11-13T00:43:50;6.30;99.90
29687;DHT22;16599;47.078;15.536;2022-11-13T00:46:17;6.30;99.90
29687;DHT22;16599;47.078;15.536;2022-11-13T00:48:44;6.40;99.90
29687;DHT22;16599;47.078;15.536;2022-11-13T00:51:11;6.40;99.90
29687;DHT22;16599;47.078;15.536;2022-11-13T00:53:37;6.30;99.90
29687;DHT22;16599;47.078;15.536;2022-11-13T00:56:05;6.20;99.90
29687;DHT22;16599;47.078;15.536;2022-11-13T00:58:31;6.20;99.90
29687;DHT22;16599;47.078;15.536;2022-11-13T01:01:07;6.10;99.90
29687;DHT22;16599;47.078;15.536;2022-11-13T01:03:34;6.00;99.90
29687;DHT22;16599;47.078;15.536;2022-11-13T01:06:12;6.00;99.90
29687;DHT22;16599;47.078;15.536;2022-11-13T01:08:39;5.90;99.90
29687;DHT22;16599;47.078;15.536;2022-11-13T01:11:18;5.70;99.90
29687;DHT22;16599;47.078;15.536;2022-11-13T01:13:48;5.50;99.90
29687;DHT22;16599;47.078;15.536;2022-11-13T01:16:17;5.30;99.90
29687;DHT22;16599;47.078;15.536;2022-11-13T01:18:44;5.40;99.90
29687;DHT22;16599;47.078;15.536;2022-11-13T01:21:14;5.40;99.90
29687;DHT22;16599;47.078;15.536;2022-11-13T01:23:42;5.30;99.90
29687;DHT22;16599;47.078;15.536;2022-11-13T01:26:12;5.30;99.90
29687;DHT22;16599;47.078;15.536;2022-11-13T01:28:40;5.40;99.90
29687;DHT22;16599;47.078;15.536;2022-11-13T01:31:09;5.00;99.90
29687;DHT22;16599;47.078;15.536;2022-11-13T01:33:36;4.90;99.90
29687;DHT22;16599;47.078;15.536;2022-11-13T01:36:06;5.00;99.90
29687;DHT22;16599;47.078;15.536;2022-11-13T01:38:34;4.60;99.90
29687;DHT22;16599;47.078;15.536;2022-11-13T01:41:03;4.60;99.90
29687;DHT22;16599;47.078;15.536;2022-11-13T01:43:36;4.90;99.90
29687;DHT22;16599;47.078;15.536;2022-11-13T01:46:05;4.90;99.90
29687;DHT22;16599;47.078;15.536;2022-11-13T01:48:39;4.80;99.90
29687;DHT22;16599;47.078;15.536;2022-11-13T01:51:25;4.70;99.90
29687;DHT22;16599;47.078;15.536;2022-11-13T01:53:53;4.70;99.90
29687;DHT22;16599;47.078;15.536;2022-11-13T01:56:21;4.60;99.90
29687;DHT22;16599;47.078;15.536;2022-11-13T01:58:53;4.50;99.90
29687;DHT22;16599;47.078;15.536;2022-11-13T02:01:21;4.60;99.90
29687;DHT22;16599;47.078;15.536;2022-11-13T02:03:48;4.60;99.90
29687;DHT22;16599;47.078;15.536;2022-11-13T02:06:15;4.10;99.90
29687;DHT22;16599;47.078;15.536;2022-11-13T02:08:42;4.10;99.90
29687;DHT22;16599;47.078;15.536;2022-11-13T02:11:11;4.10;99.90
29687;DHT22;16599;47.078;15.536;2022-11-13T02:13:38;4.10;99.90
29687;DHT22;16599;47.078;15.536;2022-11-13T02:16:07;3.80;99.90
29687;DHT22;16599;47.078;15.536;2022-11-13T02:18:36;3.60;99.90
29687;DHT22;16599;47.078;15.536;2022-11-13T02:26:44;3.80;99.90
29687;DHT22;16599;47.078;15.536;2022-11-13T02:29:11;3.90;99.90
29687;DHT22;16599;47.078;15.536;2022-11-13T02:31:38;3.90;99.90
29687;DHT22;16599;47.078;15.536;2022-11-13T02:34:05;4.00;99.90
29687;DHT22;16599;47.078;15.536;2022-11-13T02:36:33;4.00;99.90
29687;DHT22;16599;47.078;15.536;2022-11-13T02:39:04;4.00;99.90
29687;DHT22;16599;47.078;15.536;2022-11-13T02:41:32;3.90;99.90
29687;DHT22;16599;47.078;15.536;2022-11-13T02:43:59;3.80;99.90
29687;DHT22;16599;47.078;15.536;2022-11-13T02:46:25;3.90;99.90
29687;DHT22;16599;47.078;15.536;2022-11-13T02:48:52;4.10;99.90
29687;DHT22;16599;47.078;15.536;2022-11-13T02:51:19;4.10;99.90
29687;DHT22;16599;47.078;15.536;2022-11-13T02:53:46;3.80;99.90
29687;DHT22;16599;47.078;15.536;2022-11-13T02:56:12;3.80;99.90
29687;DHT22;16599;47.078;15.536;2022-11-13T02:58:39;3.90;99.90
29687;DHT22;16599;47.078;15.536;2022-11-13T03:01:06;3.80;99.90
29687;DHT22;16599;47.078;15.536;2022-11-13T03:03:33;3.80;99.90
29687;DHT22;16599;47.078;15.536;2022-11-13T03:06:20;3.70;99.90
29687;DHT22;16599;47.078;15.536;2022-11-13T03:08:47;3.70;99.90
29687;DHT22;16599;47.078;15.536;2022-11-13T03:11:13;3.60;99.90
29687;DHT22;16599;47.078;15.536;2022-11-13T03:13:40;3.60;99.90
29687;DHT22;16599;47.078;15.536;2022-11-13T03:16:13;3.60;99.90
29687;DHT22;16599;47.078;15.536;2022-11-13T03:18:40;3.70;99.90
29687;DHT22;16599;47.078;15.536;2022-11-13T03:21:10;3.80;99.90
29687;DHT22;16599;47.078;15.536;2022-11-13T03:23:38;3.90;99.90
29687;DHT22;16599;47.078;15.536;2022-11-13T03:26:08;3.80;99.90
29687;DHT22;16599;47.078;15.536;2022-11-13T03:28:35;3.70;99.90
29687;DHT22;16599;47.078;15.536;2022-11-13T03:31:03;3.80;99.90
29687;DHT22;16599;47.078;15.536;2022-11-13T03:33:29;3.80;99.90
29687;DHT22;16599;47.078;15.536;2022-11-13T03:35:56;3.90;99.90
29687;DHT22;16599;47.078;15.536;2022-11-13T03:38:24;3.90;99.90
29687;DHT22;16599;47.078;15.536;2022-11-13T03:40:51;3.60;99.90
29687;DHT22;16599;47.078;15.536;2022-11-13T03:43:18;3.20;99.90
29687;DHT22;16599;47.078;15.536;2022-11-13T03:45:46;3.20;99.90
29687;DHT22;16599;47.078;15.536;2022-11-13T03:48:14;3.00;99.90
29687;DHT22;16599;47.078;15.536;2022-11-13T03:50:47;3.10;99.90
29687;DHT22;16599;47.078;15.536;2022-11-13T03:53:14;3.10;99.90
29687;DHT22;16599;47.078;15.536;2022-11-13T03:55:42;3.30;99.90
29687;DHT22;16599;47.078;15.536;2022-11-13T03:58:09;3.50;99.90
29687;DHT22;16599;47.078;15.536;2022-11-13T04:00:41;3.60;99.90
29687;DHT22;16599;47.078;15.536;2022-11-13T04:03:09;3.60;99.90
29687;DHT22;16599;47.078;15.536;2022-11-13T04:05:36;3.00;99.90
29687;DHT22;16599;47.078;15.536;2022-11-13T04:08:03;3.00;99.90
29687;DHT22;16599;47.078;15.536;2022-11-13T04:10:30;3.10;99.90
29687;DHT22;16599;47.078;15.536;2022-11-13T04:12:57;2.80;99.90
29687;DHT22;16599;47.078;15.536;2022-11-13T04:15:24;2.70;99.90
29687;DHT22;16599;47.078;15.536;2022-11-13T04:17:51;2.90;99.90
29687;DHT22;16599;47.078;15.536;2022-11-13T04:20:17;3.10;99.90
29687;DHT22;16599;47.078;15.536;2022-11-13T04:22:45;2.70;99.90
29687;DHT22;16599;47.078;15.536;2022-11-13T04:25:12;2.60;99.90
29687;DHT22;16599;47.078;15.536;2022-11-13T04:27:39;2.60;99.90
29687;DHT22;16599;47.078;15.536;2022-11-13T04:30:06;2.80;99.90
29687;DHT22;16599;47.078;15.536;2022-11-13T04:32:33;2.60;99.90
29687;DHT22;16599;47.078;15.536;2022-11-13T04:35:00;2.60;99.90
29687;DHT22;16599;47.078;15.536;2022-11-13T04:37:27;2.70;99.90
29687;DHT22;16599;47.078;15.536;2022-11-13T04:39:54;2.70;99.90
29687;DHT22;16599;47.078;15.536;2022-11-13T04:42:20;2.50;99.90
29687;DHT22;16599;47.078;15.536;2022-11-13T04:45:06;2.60;99.90
29687;DHT22;16599;47.078;15.536;2022-11-13T04:47:33;2.40;99.90
29687;DHT22;16599;47.078;15.536;2022-11-13T04:50:00;2.40;99.90
29687;DHT22;16599;47.078;15.536;2022-11-13T04:52:27;2.30;99.90
29687;DHT22;16599;47.078;15.536;2022-11-13T04:54:54;2.10;99.90
29687;DHT22;16599;47.078;15.536;2022-11-13T04:57:21;2.20;99.90
29687;DHT22;16599;47.078;15.536;2022-11-13T04:59:48;2.50;99.90
29687;DHT22;16599;47.078;15.536;2022-11-13T05:02:15;2.40;99.90
29687;DHT22;16599;47.078;15.536;2022-11-13T05:04:42;2.50;99.90
29687;DHT22;16599;47.078;15.536;2022-11-13T05:07:09;2.70;99.90
29687;DHT22;16599;47.078;15.536;2022-11-13T05:09:35;2.70;99.90
29687;DHT22;16599;47.078;15.536;2022-11-13T05:12:02;2.80;99.90
29687;DHT22;16599;47.078;15.536;2022-11-13T05:14:37;3.00;99.90
29687;DHT22;16599;47.078;15.536;2022-11-13T05:17:05;3.10;99.90
29687;DHT22;16599;47.078;15.536;2022-11-13T05:19:32;3.10;99.90
29687;DHT22;16599;47.078;15.536;2022-11-13T05:21:59;3.20;99.90
29687;DHT22;16599;47.078;15.536;2022-11-13T05:24:26;3.30;99.90
29687;DHT22;16599;47.078;15.536;2022-11-13T05:26:53;3.50;99.90
29687;DHT22;16599;47.078;15.536;2022-11-13T05:29:20;3.60;99.90
29687;DHT22;16599;47.078;15.536;2022-11-13T05:31:47;3.80;99.90
29687;DHT22;16599;47.078;15.536;2022-11-13T05:34:14;3.70;99.90
29687;DHT22;16599;47.078;15.536;2022-11-13T05:36:41;3.60;99.90
29687;DHT22;16599;47.078;15.536;2022-11-13T05:39:08;3.60;99.90
29687;DHT22;16599;47.078;15.536;2022-11-13T05:41:34;3.80;99.90
29687;DHT22;16599;47.078;15.536;2022-11-13T05:44:01;4.20;99.90
29687;DHT22;16599;47.078;15.536;2022-11-13T05:46:28;4.30;99.90
29687;DHT22;16599;47.078;15.536;2022-11-13T05:48:57;4.40;99.90
29687;DHT22;16599;47.078;15.536;2022-11-13T05:51:33;4.30;99.90
29687;DHT22;16599;47.078;15.536;2022-11-13T05:54:00;4.20;99.90
29687;DHT22;16599;47.078;15.536;2022-11-13T05:56:33;4.20;99.90
29687;DHT22;16599;47.078;15.536;2022-11-13T05:59:01;4.20;99.90
29687;DHT22;16599;47.078;15.536;2022-11-13T06:01:31;4.10;99.90
29687;DHT22;16599;47.078;15.536;2022-11-13T06:03:59;4.20;99.90
29687;DHT22;16599;47.078;15.536;2022-11-13T06:06:27;4.40;99.90
29687;DHT22;16599;47.078;15.536;2022-11-13T06:08:57;4.40;99.90
29687;DHT22;16599;47.078;15.536;2022-11-13T06:11:25;4.50;99.90
29687;DHT22;16599;47.078;15.536;2022-11-13T06:13:53;4.50;99.90
29687;DHT22;16599;47.078;15.536;2022-11-13T06:16:23;4.50;99.90
29687;DHT22;16599;47.078;15.536;2022-11-13T06:18:56;4.50;99.90
29687;DHT22;16599;47.078;15.536;2022-11-13T06:21:27;4.50;99.90
29687;DHT22;16599;47.078;15.536;2022-11-13T06:23:56;4.50;99.90
29687;DHT22;16599;47.078;15.536;2022-11-13T06:26:29;4.40;99.90
29687;DHT22;16599;47.078;15.536;2022-11-13T06:28:57;4.40;99.90
29687;DHT22;16599;47.078;15.536;2022-11-13T06:31:27;4.50;99.90
29687;DHT22;16599;47.078;15.536;2022-11-13T06:33:56;4.60;99.90
29687;DHT22;16599;47.078;15.536;2022-11-13T06:36:26;4.60;99.90
29687;DHT22;16599;47.078;15.536;2022-11-13T06:38:53;4.70;99.90
29687;DHT22;16599;47.078;15.536;2022-11-13T06:41:22;4.70;99.90
29687;DHT22;16599;47.078;15.536;2022-11-13T06:43:49;4.70;99.90
29687;DHT22;16599;47.078;15.536;2022-11-13T06:46:21;4.70;99.90
29687;DHT22;16599;47.078;15.536;2022-11-13T06:48:48;4.80;99.90
29687;DHT22;16599;47.078;15.536;2022-11-13T06:51:17;4.80;99.90
29687;DHT22;16599;47.078;15.536;2022-11-13T06:53:45;4.80;99.90
29687;DHT22;16599;47.078;15.536;2022-11-13T06:56:12;4.80;99.90
29687;DHT22;16599;47.078;15.536;2022-11-13T06:58:39;4.90;99.90
29687;DHT22;16599;47.078;15.536;2022-11-13T07:01:08;4.80;99.90
29687;DHT22;16599;47.078;15.536;2022-11-13T07:03:36;4.90;99.90
29687;DHT22;16599;47.078;15.536;2022-11-13T07:06:04;4.90;99.90
29687;DHT22;16599;47.078;15.536;2022-11-13T07:08:31;5.00;99.90
29687;DHT22;16599;47.078;15.536;2022-11-13T07:10:58;5.10;99.90
29687;DHT22;16599;47.078;15.536;2022-11-13T07:13:26;5.10;99.90
29687;DHT22;16599;47.078;15.536;2022-11-13T07:15:53;5.10;99.90
29687;DHT22;16599;47.078;15.536;2022-11-13T07:18:20;5.10;99.90
29687;DHT22;16599;47.078;15.536;2022-11-13T07:20:50;5.20;99.90
29687;DHT22;16599;47.078;15.536;2022-11-13T07:23:16;5.30;99.90
29687;DHT22;16599;47.078;15.536;2022-11-13T07:25:43;5.30;99.90
29687;DHT22;16599;47.078;15.536;2022-11-13T07:28:11;5.50;99.90
29687;DHT22;16599;47.078;15.536;2022-11-13T07:30:38;5.50;99.90
29687;DHT22;16599;47.078;15.536;2022-11-13T07:33:05;5.50;99.90
29687;DHT22;16599;47.078;15.536;2022-11-13T07:35:31;5.50;99.90
29687;DHT22;16599;47.078;15.536;2022-11-13T07:37:58;5.60;99.90
29687;DHT22;16599;47.078;15.536;2022-11-13T07:40:25;5.70;99.90
29687;DHT22;16599;47.078;15.536;2022-11-13T07:42:58;5.70;99.90
29687;DHT22;16599;47.078;15.536;2022-11-13T07:45:26;5.80;99.90
29687;DHT22;16599;47.078;15.536;2022-11-13T07:48:03;5.80;99.90
29687;DHT22;16599;47.078;15.536;2022-11-13T07:50:35;5.90;99.90
29687;DHT22;16599;47.078;15.536;2022-11-13T07:53:05;5.90;99.90
29687;DHT22;16599;47.078;15.536;2022-11-13T07:55:34;5.90;99.90
29687;DHT22;16599;47.078;15.536;2022-11-13T07:58:02;6.00;99.90
29687;DHT22;16599;47.078;15.536;2022-11-13T08:00:32;6.10;99.90
29687;DHT22;16599;47.078;15.536;2022-11-13T08:03:07;6.10;99.90
29687;DHT22;16599;47.078;15.536;2022-11-13T08:05:34;6.30;99.90
29687;DHT22;16599;47.078;15.536;2022-11-13T08:08:02;6.30;99.90
29687;DHT22;16599;47.078;15.536;2022-11-13T08:10:28;6.40;99.90
29687;DHT22;16599;47.078;15.536;2022-11-13T08:13:00;6.50;99.90
29687;DHT22;16599;47.078;15.536;2022-11-13T08:15:28;6.60;99.90
29687;DHT22;16599;47.078;15.536;2022-11-13T08:17:57;6.70;99.90
29687;DHT22;16599;47.078;15.536;2022-11-13T08:20:25;6.80;99.90
29687;DHT22;16599;47.078;15.536;2022-11-13T08:22:58;6.90;99.90
29687;DHT22;16599;47.078;15.536;2022-11-13T08:25:26;7.10;99.90
29687;DHT22;16599;47.078;15.536;2022-11-13T08:27:55;7.10;99.90
29687;DHT22;16599;47.078;15.536;2022-11-13T08:30:23;7.10;99.90
29687;DHT22;16599;47.078;15.536;2022-11-13T08:32:50;7.20;99.90
29687;DHT22;16599;47.078;15.536;2022-11-13T08:35:18;7.20;99.90
29687;DHT22;16599;47.078;15.536;2022-11-13T08:37:48;7.10;99.90
29687;DHT22;16599;47.078;15.536;2022-11-13T08:40:15;7.20;99.90
29687;DHT22;16599;47.078;15.536;2022-11-13T08:42:42;7.50;99.90
29687;DHT22;16599;47.078;15.536;2022-11-13T08:45:09;7.70;99.90
29687;DHT22;16599;47.078;15.536;2022-11-13T08:47:36;7.80;99.90
29687;DHT22;16599;47.078;15.536;2022-11-13T08:50:04;7.90;99.90
29687;DHT22;16599;47.078;15.536;2022-11-13T08:52:31;7.80;99.90
29687;DHT22;16599;47.078;15.536;2022-11-13T08:54:58;7.80;99.90
29687;DHT22;16599;47.078;15.536;2022-11-13T08:57:25;8.00;99.90
29687;DHT22;16599;47.078;15.536;2022-11-13T08:59:52;8.10;99.90
29687;DHT22;16599;47.078;15.536;2022-11-13T09:02:18;8.10;99.90
29687;DHT22;16599;47.078;15.536;2022-11-13T09:04:45;8.20;99.90
29687;DHT22;16599;47.078;15.536;2022-11-13T09:07:12;8.20;99.90
29687;DHT22;16599;47.078;15.536;2022-11-13T09:09:39;8.40;99.90
29687;DHT22;16599;47.078;15.536;2022-11-13T09:12:06;8.50;99.90
29687;DHT22;16599;47.078;15.536;2022-11-13T09:14:34;8.70;99.90
29687;DHT22;16599;47.078;15.536;2022-11-13T09:17:00;8.80;99.90
29687;DHT22;16599;47.078;15.536;2022-11-13T09:19:27;9.00;99.90
29687;DHT22;16599;47.078;15.536;2022-11-13T09:21:54;9.00;99.90
29687;DHT22;16599;47.078;15.536;2022-11-13T09:24:21;8.80;99.90
29687;DHT22;16599;47.078;15.536;2022-11-13T09:26:47;8.80;99.90
29687;DHT22;16599;47.078;15.536;2022-11-13T09:29:14;9.00;99.90
29687;DHT22;16599;47.078;15.536;2022-11-13T09:31:41;9.20;99.90
29687;DHT22;16599;47.078;15.536;2022-11-13T09:34:08;9.20;99.90
29687;DHT22;16599;47.078;15.536;2022-11-13T09:36:35;9.20;99.90
29687;DHT22;16599;47.078;15.536;2022-11-13T09:39:03;8.90;99.90
29687;DHT22;16599;47.078;15.536;2022-11-13T09:41:38;8.60;99.90
29687;DHT22;16599;47.078;15.536;2022-11-13T09:44:23;8.50;99.90
29687;DHT22;16599;47.078;15.536;2022-11-13T09:47:02;8.50;99.90
29687;DHT22;16599;47.078;15.536;2022-11-13T09:49:33;8.60;99.90
29687;DHT22;16599;47.078;15.536;2022-11-13T09:52:13;8.60;99.90
29687;DHT22;16599;47.078;15.536;2022-11-13T09:54:40;8.80;99.90
29687;DHT22;16599;47.078;15.536;2022-11-13T09:57:34;8.90;99.90
29687;DHT22;16599;47.078;15.536;2022-11-13T10:00:14;8.90;99.90
29687;DHT22;16599;47.078;15.536;2022-11-13T10:13:44;9.60;99.90
29687;DHT22;16599;47.078;15.536;2022-11-13T10:22:01;9.30;99.90
29687;DHT22;16599;47.078;15.536;2022-11-13T10:24:50;9.30;99.90
29687;DHT22;16599;47.078;15.536;2022-11-13T10:27:18;9.50;99.90
29687;DHT22;16599;47.078;15.536;2022-11-13T10:29:45;10.10;99.90
29687;DHT22;16599;47.078;15.536;2022-11-13T10:32:26;10.50;99.90
29687;DHT22;16599;47.078;15.536;2022-11-13T10:40:42;9.80;99.90
29687;DHT22;16599;47.078;15.536;2022-11-13T10:43:16;10.30;99.90
29687;DHT22;16599;47.078;15.536;2022-11-13T10:45:55;10.70;99.90
29687;DHT22;16599;47.078;15.536;2022-11-13T10:50:58;10.30;99.90
29687;DHT22;16599;47.078;15.536;2022-11-13T10:53:27;10.20;99.90
29687;DHT22;16599;47.078;15.536;2022-11-13T10:55:58;10.30;99.90
29687;DHT22;16599;47.078;15.536;2022-11-13T10:58:26;10.40;99.90
29687;DHT22;16599;47.078;15.536;2022-11-13T11:00:53;10.50;99.90
29687;DHT22;16599;47.078;15.536;2022-11-13T11:03:22;10.80;99.90
29687;DHT22;16599;47.078;15.536;2022-11-13T11:06:01;11.40;99.90
29687;DHT22;16599;47.078;15.536;2022-11-13T11:08:31;11.50;99.90
29687;DHT22;16599;47.078;15.536;2022-11-13T11:11:00;11.60;99.90
29687;DHT22;16599;47.078;15.536;2022-11-13T11:13:47;11.50;99.90
29687;DHT22;16599;47.078;15.536;2022-11-13T11:16:19;11.30;99.90
29687;DHT22;16599;47.078;15.536;2022-11-13T11:18:55;11.10;99.90
29687;DHT22;16599;47.078;15.536;2022-11-13T11:21:31;10.90;99.90
29687;DHT22;16599;47.078;15.536;2022-11-13T11:24:12;11.00;99.90
29687;DHT22;16599;47.078;15.536;2022-11-13T11:26:46;10.70;99.90
29687;DHT22;16599;47.078;15.536;2022-11-13T11:29:24;10.60;99.90
29687;DHT22;16599;47.078;15.536;2022-11-13T11:34:27;10.70;99.90
29687;DHT22;16599;47.078;15.536;2022-11-13T11:39:34;10.80;99.90
29687;DHT22;16599;47.078;15.536;2022-11-13T11:47:26;11.00;99.90
29687;DHT22;16599;47.078;15.536;2022-11-13T11:49:53;10.90;99.90
29687;DHT22;16599;47.078;15.536;2022-11-13T11:55:47;11.00;99.90
29687;DHT22;16599;47.078;15.536;2022-11-13T12:01:03;11.00;99.90
29687;DHT22;16599;47.078;15.536;2022-11-13T12:09:27;11.30;99.90
29687;DHT22;16599;47.078;15.536;2022-11-13T12:12:01;11.10;99.90
29687;DHT22;16599;47.078;15.536;2022-11-13T12:20:17;11.50;99.90
29687;DHT22;16599;47.078;15.536;2022-11-13T12:23:09;11.80;99.90
29687;DHT22;16599;47.078;15.536;2022-11-13T12:25:48;11.70;99.90
29687;DHT22;16599;47.078;15.536;2022-11-13T12:36:45;11.20;99.80
29687;DHT22;16599;47.078;15.536;2022-11-13T12:42:28;11.10;99.90
29687;DHT22;16599;47.078;15.536;2022-11-13T12:45:40;11.30;99.90
29687;DHT22;16599;47.078;15.536;2022-11-13T12:51:03;11.70;99.90
29687;DHT22;16599;47.078;15.536;2022-11-13T12:53:51;11.20;99.90
29687;DHT22;16599;47.078;15.536;2022-11-13T12:56:36;11.10;99.90
29687;DHT22;16599;47.078;15.536;2022-11-13T12:59:34;10.90;99.90
29687;DHT22;16599;47.078;15.536;2022-11-13T13:12:56;10.30;99.90
29687;DHT22;16599;47.078;15.536;2022-11-13T13:15:36;10.30;99.90
29687;DHT22;16599;47.078;15.536;2022-11-13T13:18:27;10.40;99.90
29687;DHT22;16599;47.078;15.536;2022-11-13T13:23:35;10.50;99.90
29687;DHT22;16599;47.078;15.536;2022-11-13T13:28:40;10.40;99.90
29687;DHT22;16599;47.078;15.536;2022-11-13T13:46:33;9.90;99.90
29687;DHT22;16599;47.078;15.536;2022-11-13T13:49:12;9.90;99.90
29687;DHT22;16599;47.078;15.536;2022-11-13T13:51:45;9.80;99.90
29687;DHT22;16599;47.078;15.536;2022-11-13T13:54:19;9.70;99.90
29687;DHT22;16599;47.078;15.536;2022-11-13T13:57:15;9.70;99.90
29687;DHT22;16599;47.078;15.536;2022-11-13T13:59:43;9.80;99.90
29687;DHT22;16599;47.078;15.536;2022-11-13T14:02:19;9.70;99.90
29687;DHT22;16599;47.078;15.536;2022-11-13T14:04:49;9.50;99.90
29687;DHT22;16599;47.078;15.536;2022-11-13T14:10:24;9.40;99.90
29687;DHT22;16599;47.078;15.536;2022-11-13T14:12:49;9.40;99.90
29687;DHT22;16599;47.078;15.536;2022-11-13T14:15:26;9.40;99.90
29687;DHT22;16599;47.078;15.536;2022-11-13T14:18:06;9.30;99.90
29687;DHT22;16599;47.078;15.536;2022-11-13T14:20:48;9.20;99.90
29687;DHT22;16599;47.078;15.536;2022-11-13T14:23:39;9.10;99.90
29687;DHT22;16599;47.078;15.536;2022-11-13T14:26:08;8.70;99.90
29687;DHT22;16599;47.078;15.536;2022-11-13T14:31:11;8.50;99.90
29687;DHT22;16599;47.078;15.536;2022-11-13T14:33:49;8.10;99.90
29687;DHT22;16599;47.078;15.536;2022-11-13T14:36:25;8.10;99.90
29687;DHT22;16599;47.078;15.536;2022-11-13T14:38:53;8.10;99.90
29687;DHT22;16599;47.078;15.536;2022-11-13T14:42:01;8.00;99.90
29687;DHT22;16599;47.078;15.536;2022-11-13T14:44:31;8.10;99.90
29687;DHT22;16599;47.078;15.536;2022-11-13T14:47:04;8.10;99.90
29687;DHT22;16599;47.078;15.536;2022-11-13T14:49:35;8.10;99.90
29687;DHT22;16599;47.078;15.536;2022-11-13T14:52:03;8.10;99.90
29687;DHT22;16599;47.078;15.536;2022-11-13T14:54:36;8.10;99.90
29687;DHT22;16599;47.078;15.536;2022-11-13T14:57:23;8.00;99.90
29687;DHT22;16599;47.078;15.536;2022-11-13T14:59:50;7.80;99.90
29687;DHT22;16599;47.078;15.536;2022-11-13T15:02:17;7.30;99.90
29687;DHT22;16599;47.078;15.536;2022-11-13T15:04:45;7.30;99.90
29687;DHT22;16599;47.078;15.536;2022-11-13T15:07:41;7.50;99.90
29687;DHT22;16599;47.078;15.536;2022-11-13T15:10:17;7.00;99.90
29687;DHT22;16599;47.078;15.536;2022-11-13T15:12:44;6.90;99.90
29687;DHT22;16599;47.078;15.536;2022-11-13T15:15:20;6.60;99.90
29687;DHT22;16599;47.078;15.536;2022-11-13T15:17:49;6.60;99.90
29687;DHT22;16599;47.078;15.536;2022-11-13T15:20:25;6.50;99.90
29687;DHT22;16599;47.078;15.536;2022-11-13T15:22:53;6.60;99.90
29687;DHT22;16599;47.078;15.536;2022-11-13T15:25:22;6.30;99.90
29687;DHT22;16599;47.078;15.536;2022-11-13T15:27:48;6.00;99.90
29687;DHT22;16599;47.078;15.536;2022-11-13T15:30:16;5.90;99.90
29687;DHT22;16599;47.078;15.536;2022-11-13T15:32:43;5.80;99.90
29687;DHT22;16599;47.078;15.536;2022-11-13T15:35:14;5.80;99.90
29687;DHT22;16599;47.078;15.536;2022-11-13T15:37:41;6.00;99.90
29687;DHT22;16599;47.078;15.536;2022-11-13T15:40:08;5.80;99.90
29687;DHT22;16599;47.078;15.536;2022-11-13T15:42:35;5.80;99.90
29687;DHT22;16599;47.078;15.536;2022-11-13T15:45:03;5.60;99.90
29687;DHT22;16599;47.078;15.536;2022-11-13T15:47:35;5.50;99.90
29687;DHT22;16599;47.078;15.536;2022-11-13T15:50:03;5.70;99.90
29687;DHT22;16599;47.078;15.536;2022-11-13T15:52:43;5.70;99.90
29687;DHT22;16599;47.078;15.536;2022-11-13T15:55:30;5.80;99.90
29687;DHT22;16599;47.078;15.536;2022-11-13T15:57:57;5.40;99.90
29687;DHT22;16599;47.078;15.536;2022-11-13T16:00:26;5.20;99.90
29687;DHT22;16599;47.078;15.536;2022-11-13T16:02:54;5.00;99.90
29687;DHT22;16599;47.078;15.536;2022-11-13T16:05:26;5.00;99.90
29687;DHT22;16599;47.078;15.536;2022-11-13T16:07:55;5.00;99.90
29687;DHT22;16599;47.078;15.536;2022-11-13T16:10:23;4.80;99.90
29687;DHT22;16599;47.078;15.536;2022-11-13T16:12:51;4.50;99.90
29687;DHT22;16599;47.078;15.536;2022-11-13T16:15:18;4.80;99.90
29687;DHT22;16599;47.078;15.536;2022-11-13T16:17:48;4.50;99.90
29687;DHT22;16599;47.078;15.536;2022-11-13T16:20:16;4.50;99.90
29687;DHT22;16599;47.078;15.536;2022-11-13T16:22:43;4.70;99.90
29687;DHT22;16599;47.078;15.536;2022-11-13T16:25:12;4.90;99.90
29687;DHT22;16599;47.078;15.536;2022-11-13T16:27:40;4.80;99.90
29687;DHT22;16599;47.078;15.536;2022-11-13T16:30:18;5.10;99.90
29687;DHT22;16599;47.078;15.536;2022-11-13T16:32:54;4.70;99.90
29687;DHT22;16599;47.078;15.536;2022-11-13T16:35:21;4.10;99.90
29687;DHT22;16599;47.078;15.536;2022-11-13T16:37:47;4.30;99.90
29687;DHT22;16599;47.078;15.536;2022-11-13T16:40:23;4.30;99.90
29687;DHT22;16599;47.078;15.536;2022-11-13T16:42:51;4.30;99.90
29687;DHT22;16599;47.078;15.536;2022-11-13T16:45:19;4.50;99.90
29687;DHT22;16599;47.078;15.536;2022-11-13T16:47:46;4.50;99.90
29687;DHT22;16599;47.078;15.536;2022-11-13T16:50:22;4.50;99.90
29687;DHT22;16599;47.078;15.536;2022-11-13T16:52:50;4.60;99.90
29687;DHT22;16599;47.078;15.536;2022-11-13T16:55:17;4.60;99.90
29687;DHT22;16599;47.078;15.536;2022-11-13T16:57:44;4.20;99.90
29687;DHT22;16599;47.078;15.536;2022-11-13T17:00:13;4.30;99.90
29687;DHT22;16599;47.078;15.536;2022-11-13T17:02:41;4.20;99.90
29687;DHT22;16599;47.078;15.536;2022-11-13T17:05:15;4.20;99.90
29687;DHT22;16599;47.078;15.536;2022-11-13T17:07:42;4.10;99.90
29687;DHT22;16599;47.078;15.536;2022-11-13T17:10:14;4.10;99.90
29687;DHT22;16599;47.078;15.536;2022-11-13T17:12:57;4.10;99.90
29687;DHT22;16599;47.078;15.536;2022-11-13T17:15:26;4.20;99.90
29687;DHT22;16599;47.078;15.536;2022-11-13T17:17:56;4.30;99.90
29687;DHT22;16599;47.078;15.536;2022-11-13T17:20:23;4.50;99.90
29687;DHT22;16599;47.078;15.536;2022-11-13T17:22:50;4.40;99.90
29687;DHT22;16599;47.078;15.536;2022-11-13T17:25:17;4.10;99.90
29687;DHT22;16599;47.078;15.536;2022-11-13T17:27:44;4.30;99.90
29687;DHT22;16599;47.078;15.536;2022-11-13T17:30:12;4.20;99.90
29687;DHT22;16599;47.078;15.536;2022-11-13T17:32:39;4.10;99.90
29687;DHT22;16599;47.078;15.536;2022-11-13T17:35:06;4.00;99.90
29687;DHT22;16599;47.078;15.536;2022-11-13T17:37:34;3.80;99.90
29687;DHT22;16599;47.078;15.536;2022-11-13T17:40:01;3.80;99.90